Terminal Aerodrome Forecast
Issued by NWS Sioux Falls, SD

Home | Current Version | Previous Version | Text Only | Print | Product List | Glossary Off
Versions: 1 2 3 4 5 6 7 8 9 10 11 12 13 14

000
FTUS43 KFSD 272017 AAB
TAFFSD
TAF AMD
KFSD 272017Z 2720/2818 18012G18KT P6SM SCT250
     FM280000 15007KT P6SM BKN070
     FM280800 12005KT P6SM OVC015
     FM281100 04005KT 3SM BR OVC005
     FM281500 02007KT P6SM OVC008=

USA.gov is the U.S. government's official web portal to all federal, state and local government web resources and services.